Time;durP1;ratioP1;P1;durP2;ratioP2;P2;SDS_P1;SDS_P2;PMS_P1;PMS_P2;Temp;Humidity;BMP_temperature;BMP_pressure;BME280_temperature;BME280_humidity;BME280_pressure;Samples;Min_cycle;Max_cycle;Signal;HPM_P1;HPM_P2
2021/09/07 00:00:34;;;;;;;30.35;25.58;;;;;;;6.71;100.00;99911.50;2088139;28;20219;-74
2021/09/07 00:01:36;;;;;;;27.70;24.70;;;;;;;6.70;100.00;99913.34;2087948;28;20749;-74
2021/09/07 00:02:36;;;;;;;29.00;24.42;;;;;;;6.67;100.00;99905.88;2088431;28;20701;-74
2021/09/07 00:03:38;;;;;;;28.00;24.83;;;;;;;6.68;100.00;99909.31;2088617;28;20613;-74
2021/09/07 00:04:39;;;;;;;29.55;24.30;;;;;;;6.66;100.00;99906.13;2088429;28;20218;-74
2021/09/07 00:05:41;;;;;;;27.47;24.57;;;;;;;6.67;100.00;99903.22;2088658;28;20226;-75
2021/09/07 00:06:41;;;;;;;29.38;25.95;;;;;;;6.65;100.00;99905.31;2088128;28;20723;-75
2021/09/07 00:07:43;;;;;;;27.87;24.87;;;;;;;6.66;100.00;99909.56;2079613;28;20585;-75
2021/09/07 00:08:45;;;;;;;28.92;24.77;;;;;;;6.67;100.00;99905.06;2087844;28;20724;-75
2021/09/07 00:09:48;;;;;;;28.73;24.42;;;;;;;6.65;100.00;99905.31;2080168;28;20226;-75
2021/09/07 00:10:51;;;;;;;36.40;24.92;;;;;;;6.64;100.00;99909.03;2079728;28;20223;-75
2021/09/07 00:11:53;;;;;;;28.60;24.17;;;;;;;6.62;100.00;99903.19;2079338;28;20714;-74
2021/09/07 00:12:56;;;;;;;33.42;24.85;;;;;;;6.63;100.00;99904.78;2087848;28;20260;-75
2021/09/07 00:13:59;;;;;;;30.15;25.23;;;;;;;6.62;100.00;99905.84;2088596;28;20302;-75
2021/09/07 00:15:01;;;;;;;29.38;24.88;;;;;;;6.62;100.00;99908.47;2087767;28;20233;-75
2021/09/07 00:16:04;;;;;;;31.38;23.33;;;;;;;6.61;100.00;99906.88;2087911;28;20227;-75
2021/09/07 00:17:05;;;;;;;29.42;25.70;;;;;;;6.60;100.00;99913.22;2088684;28;20222;-75
2021/09/07 00:18:07;;;;;;;32.60;25.35;;;;;;;6.58;100.00;99902.06;2087196;28;20238;-75
2021/09/07 00:19:08;;;;;;;27.98;23.33;;;;;;;6.56;100.00;99903.38;2087972;28;20226;-74
2021/09/07 00:20:12;;;;;;;26.93;23.90;;;;;;;6.56;100.00;99901.50;2087730;28;20236;-74
2021/09/07 00:21:14;;;;;;;25.23;22.60;;;;;;;6.56;100.00;99909.47;2087985;28;20700;-75
2021/09/07 00:22:15;;;;;;;28.75;25.00;;;;;;;6.57;100.00;99907.63;2087743;28;20218;-74
2021/09/07 00:23:17;;;;;;;30.27;23.33;;;;;;;6.54;100.00;99906.28;2079727;28;20223;-74
2021/09/07 00:24:19;;;;;;;29.00;24.70;;;;;;;6.53;100.00;99901.22;2087984;28;20638;-75
2021/09/07 00:25:21;;;;;;;28.75;23.92;;;;;;;6.52;100.00;99905.72;2087912;28;20223;-75
2021/09/07 00:26:22;;;;;;;30.67;24.67;;;;;;;6.52;100.00;99905.72;2087631;28;20306;-75
2021/09/07 00:27:24;;;;;;;26.85;24.02;;;;;;;6.50;100.00;99903.28;2087784;28;20281;-75
2021/09/07 00:28:26;;;;;;;31.65;23.85;;;;;;;6.46;100.00;99907.50;2088013;28;20223;-75
2021/09/07 00:29:26;;;;;;;29.98;24.23;;;;;;;6.45;100.00;99895.31;2087794;28;21294;-75
2021/09/07 00:30:28;;;;;;;25.57;22.80;;;;;;;6.42;100.00;99893.13;2087909;28;20641;-74
2021/09/07 00:31:30;;;;;;;25.90;22.95;;;;;;;6.40;100.00;99900.53;2088660;28;20259;-74
2021/09/07 00:32:32;;;;;;;24.70;22.08;;;;;;;6.41;100.00;99904.78;2088611;28;20223;-74
2021/09/07 00:33:35;;;;;;;26.77;23.67;;;;;;;6.40;100.00;99902.38;2088525;28;20250;-74
2021/09/07 00:34:36;;;;;;;29.95;24.33;;;;;;;6.38;100.00;99888.59;2088598;28;20321;-75
2021/09/07 00:35:38;;;;;;;28.67;25.20;;;;;;;6.38;100.00;99900.00;2088343;28;20273;-75
2021/09/07 00:36:39;;;;;;;26.73;23.83;;;;;;;6.37;100.00;99900.25;2088570;28;20226;-75
2021/09/07 00:37:41;;;;;;;27.97;23.43;;;;;;;6.34;100.00;99893.59;2088634;28;20219;-75
2021/09/07 00:38:42;;;;;;;28.02;24.55;;;;;;;6.33;100.00;99896.47;2088450;28;20230;-75
2021/09/07 00:39:44;;;;;;;31.07;24.43;;;;;;;6.29;100.00;99896.16;2087753;28;20242;-74
2021/09/07 00:40:45;;;;;;;29.75;24.38;;;;;;;6.30;100.00;99894.31;2087950;28;20310;-74
2021/09/07 00:41:48;;;;;;;26.97;23.87;;;;;;;6.29;100.00;99898.81;2087794;28;20265;-75
2021/09/07 00:42:48;;;;;;;27.65;24.52;;;;;;;6.28;100.00;99897.22;2087717;28;20574;-75
2021/09/07 00:43:50;;;;;;;28.23;24.10;;;;;;;6.26;100.00;99890.56;2087752;28;20306;-74
2021/09/07 00:44:50;;;;;;;28.70;23.95;;;;;;;6.24;100.00;99886.28;2087968;28;20305;-74
2021/09/07 00:45:52;;;;;;;33.23;23.73;;;;;;;6.23;100.00;99895.31;2088559;28;20226;-75
2021/09/07 00:46:56;;;;;;;27.75;24.95;;;;;;;6.20;100.00;99881.75;2088346;28;20231;-75
2021/09/07 00:48:04;;;;;;;28.00;23.73;;;;;;;6.21;100.00;99886.00;2088487;28;20284;-75
2021/09/07 00:49:05;;;;;;;29.40;25.00;;;;;;;6.19;100.00;99891.56;2088571;28;20223;-75
2021/09/07 00:50:07;;;;;;;28.97;25.40;;;;;;;6.22;100.00;99895.56;2087810;28;20223;-75
2021/09/07 00:51:08;;;;;;;26.92;24.05;;;;;;;6.20;100.00;99893.16;2087571;28;20248;-75
2021/09/07 00:52:10;;;;;;;27.97;25.03;;;;;;;6.19;100.00;99891.56;2088641;28;20227;-75
2021/09/07 00:53:11;;;;;;;27.63;24.60;;;;;;;6.20;100.00;99898.44;2087922;28;20314;-75
2021/09/07 00:54:12;;;;;;;27.10;23.63;;;;;;;6.18;100.00;99889.94;2087878;28;20265;-75
2021/09/07 00:55:13;;;;;;;25.77;22.83;;;;;;;6.19;100.00;99890.75;2088029;28;20536;-75
2021/09/07 00:56:15;;;;;;;27.42;23.38;;;;;;;6.19;100.00;99891.56;2087928;28;20601;-75
2021/09/07 00:57:16;;;;;;;25.95;23.23;;;;;;;6.18;100.00;99894.44;2088632;28;20219;-75
2021/09/07 00:58:19;;;;;;;25.30;22.20;;;;;;;6.16;100.00;99894.69;2087773;28;20223;-75
2021/09/07 00:59:20;;;;;;;26.98;24.17;;;;;;;6.19;100.00;99891.56;2087776;28;20218;-75
2021/09/07 01:00:21;;;;;;;28.55;22.98;;;;;;;6.26;100.00;99890.56;2088541;28;20276;-74
2021/09/07 01:01:22;;;;;;;26.65;23.25;;;;;;;6.31;100.00;99895.91;2088107;28;20222;-74
2021/09/07 01:02:26;;;;;;;26.20;23.52;;;;;;;6.38;100.00;99897.34;2087719;28;20231;-74
2021/09/07 01:03:26;;;;;;;25.02;22.55;;;;;;;6.44;100.00;99888.41;2079584;28;20239;-74
2021/09/07 01:04:32;;;;;;;26.50;23.25;;;;;;;6.52;100.00;99889.81;2087743;28;20673;-74
2021/09/07 01:05:34;;;;;;;26.20;22.80;;;;;;;6.57;100.00;99891.72;2088259;28;20289;-75
2021/09/07 01:06:35;;;;;;;24.90;22.30;;;;;;;6.59;100.00;99886.94;2088477;28;20242;-75
2021/09/07 01:07:37;;;;;;;25.20;22.33;;;;;;;6.65;100.00;99889.41;2088534;28;20226;-75
2021/09/07 01:08:39;;;;;;;25.35;22.30;;;;;;;6.69;100.00;99893.19;2088216;28;20249;-75
2021/09/07 01:09:41;;;;;;;32.72;21.67;;;;;;;6.69;100.00;99892.34;2088499;28;20310;-75
2021/09/07 01:10:47;;;;;;;24.48;22.17;;;;;;;6.69;100.00;99893.19;2087622;28;20215;-75
2021/09/07 01:11:52;;;;;;;24.40;22.08;;;;;;;6.73;100.00;99886.31;2079731;28;20670;-75
2021/09/07 01:12:55;;;;;;;24.38;21.80;;;;;;;6.75;100.00;99894.03;2087927;28;20635;-75
2021/09/07 01:13:57;;;;;;;24.88;22.10;;;;;;;6.77;100.00;99891.91;2088411;28;20242;-74
2021/09/07 01:15:01;;;;;;;24.85;22.10;;;;;;;6.83;100.00;99890.91;2087924;28;20242;-75
2021/09/07 01:16:02;;;;;;;26.48;22.70;;;;;;;6.87;100.00;99891.22;2087847;28;20223;-74
2021/09/07 01:17:10;;;;;;;27.02;22.80;;;;;;;6.90;100.00;99893.38;2088536;28;20306;-74
2021/09/07 01:18:12;;;;;;;27.25;22.73;;;;;;;6.90;100.00;99891.53;2087424;28;20732;-75
2021/09/07 01:19:14;;;;;;;26.52;22.10;;;;;;;6.92;100.00;99891.25;2079532;28;20220;-74
2021/09/07 01:20:15;;;;;;;26.48;23.77;;;;;;;6.88;100.00;99880.38;2079412;28;20263;-75
2021/09/07 01:21:17;;;;;;;28.60;24.07;;;;;;;6.92;100.00;99878.00;2079384;28;20227;-75
2021/09/07 01:22:19;;;;;;;26.75;22.67;;;;;;;6.89;100.00;99884.63;2087744;28;20305;-75
2021/09/07 01:23:21;;;;;;;26.17;22.60;;;;;;;6.90;100.00;99880.13;2087767;28;20226;-75
2021/09/07 01:24:23;;;;;;;25.88;22.17;;;;;;;6.87;100.00;99883.28;2079107;28;20223;-75
2021/09/07 01:25:25;;;;;;;30.23;22.67;;;;;;;6.87;100.00;99891.22;2087839;28;20276;-75
2021/09/07 01:26:26;;;;;;;28.73;22.83;;;;;;;6.87;100.00;99885.94;2087600;28;20310;-75
2021/09/07 01:27:28;;;;;;;30.83;23.13;;;;;;;6.87;100.00;99892.03;2087771;28;20601;-75
2021/09/07 01:28:31;;;;;;;24.90;22.20;;;;;;;6.85;100.00;99880.84;2088360;28;20704;-75
2021/09/07 01:29:35;;;;;;;24.27;21.67;;;;;;;6.83;100.00;99874.22;2088436;28;20276;-75
2021/09/07 01:30:36;;;;;;;24.40;21.65;;;;;;;6.83;100.00;99882.16;2089957;28;20669;-75
2021/09/07 01:31:37;;;;;;;25.33;21.30;;;;;;;6.81;100.00;99877.13;2089492;28;20232;-75
2021/09/07 01:32:39;;;;;;;24.30;21.70;;;;;;;6.77;100.00;99879.44;2089981;28;20300;-75
2021/09/07 01:33:40;;;;;;;26.02;22.15;;;;;;;6.77;100.00;99873.34;2089740;28;20245;-75
2021/09/07 01:34:42;;;;;;;24.17;21.63;;;;;;;6.75;100.00;99878.09;2088778;28;20286;-75
2021/09/07 01:35:43;;;;;;;24.85;22.17;;;;;;;6.73;100.00;99881.00;2089158;28;20536;-75
2021/09/07 01:36:44;;;;;;;28.57;22.47;;;;;;;6.68;100.00;99872.19;2089058;28;20233;-75
2021/09/07 01:37:45;;;;;;;28.10;22.95;;;;;;;6.67;100.00;99875.91;2089121;28;20230;-75
2021/09/07 01:38:48;;;;;;;23.83;21.33;;;;;;;6.62;100.00;99870.56;2089909;28;20241;-75
2021/09/07 01:39:50;;;;;;;24.65;21.65;;;;;;;6.59;100.00;99873.69;2090029;28;20218;-75
2021/09/07 01:40:54;;;;;;;25.67;20.85;;;;;;;6.55;100.00;99873.41;2089259;28;20307;-74
2021/09/07 01:41:55;;;;;;;24.80;21.58;;;;;;;6.53;100.00;99869.41;2080607;28;20231;-75
2021/09/07 01:42:56;;;;;;;24.90;21.73;;;;;;;6.50;100.00;99865.38;2089125;28;20308;-75
2021/09/07 01:43:57;;;;;;;23.48;21.08;;;;;;;6.47;100.00;99866.69;2089725;28;20243;-75
2021/09/07 01:44:59;;;;;;;24.87;22.27;;;;;;;6.45;100.00;99865.34;2089252;28;20218;-75
2021/09/07 01:45:59;;;;;;;24.40;21.80;;;;;;;6.43;100.00;99872.75;2089199;28;20230;-75
2021/09/07 01:47:02;;;;;;;26.03;23.20;;;;;;;6.38;100.00;99868.19;2089845;28;20215;-75
2021/09/07 01:48:03;;;;;;;24.15;21.65;;;;;;;6.34;100.00;99867.09;2089875;28;20243;-75
2021/09/07 01:49:08;;;;;;;28.85;23.20;;;;;;;6.33;100.00;99869.97;2088949;28;20297;-74
2021/09/07 01:50:10;;;;;;;23.58;21.17;;;;;;;6.30;100.00;99865.16;2088838;28;20218;-74
2021/09/07 01:51:12;;;;;;;24.20;21.63;;;;;;;6.28;100.00;99868.06;2089779;28;20231;-74
2021/09/07 01:52:14;;;;;;;25.35;21.40;;;;;;;6.27;100.00;99876.28;2088952;28;20221;-76
2021/09/07 01:53:16;;;;;;;25.10;22.45;;;;;;;6.23;100.00;99868.00;2089099;28;20794;-75
2021/09/07 01:54:19;;;;;;;23.92;21.40;;;;;;;6.21;100.00;99862.16;2088940;28;20225;-74
2021/09/07 01:55:22;;;;;;;25.27;22.73;;;;;;;6.21;100.00;99870.09;2089096;28;20289;-74
2021/09/07 01:56:23;;;;;;;24.15;21.85;;;;;;;6.20;100.00;99877.25;2089373;28;20226;-74
2021/09/07 01:57:25;;;;;;;24.70;22.20;;;;;;;6.19;100.00;99872.22;2088750;28;20746;-75
2021/09/07 01:58:27;;;;;;;27.52;22.88;;;;;;;6.18;100.00;99873.25;2088932;28;20257;-75
2021/09/07 01:59:29;;;;;;;25.75;23.02;;;;;;;6.16;100.00;99870.84;2089520;28;20226;-75
2021/09/07 02:00:31;;;;;;;26.00;23.40;;;;;;;6.16;100.00;99868.19;2089658;28;20665;-75
2021/09/07 02:01:35;;;;;;;25.23;22.27;;;;;;;6.15;100.00;99874.53;2089735;28;20218;-75
2021/09/07 02:02:37;;;;;;;27.70;23.65;;;;;;;6.18;100.00;99873.25;2089645;28;20226;-75
2021/09/07 02:03:39;;;;;;;25.15;22.60;;;;;;;6.17;100.00;99872.47;2089305;28;20253;-75
2021/09/07 02:04:39;;;;;;;25.50;23.08;;;;;;;6.17;100.00;99876.97;2088706;28;20272;-75
2021/09/07 02:05:42;;;;;;;28.98;23.60;;;;;;;6.15;100.00;99877.19;2088999;28;20333;-74
2021/09/07 02:06:47;;;;;;;27.73;22.67;;;;;;;6.19;100.00;99880.16;2088919;28;20234;-74
2021/09/07 02:07:48;;;;;;;25.50;22.90;;;;;;;6.19;100.00;99880.97;2088881;28;20253;-75
2021/09/07 02:08:51;;;;;;;25.80;23.10;;;;;;;6.21;100.00;99878.84;2088830;28;20222;-75
2021/09/07 02:09:52;;;;;;;26.10;23.35;;;;;;;6.20;100.00;99879.91;2080300;28;20550;-74
2021/09/07 02:10:56;;;;;;;26.10;23.27;;;;;;;6.19;100.00;99870.34;2088857;28;20231;-75
2021/09/07 02:11:57;;;;;;;27.45;23.70;;;;;;;6.20;100.00;99877.25;2089521;28;20241;-75
2021/09/07 02:13:00;;;;;;;25.38;23.00;;;;;;;6.21;100.00;99878.84;2089627;28;20276;-75
2021/09/07 02:14:01;;;;;;;28.02;23.10;;;;;;;6.21;100.00;99876.19;2089702;28;20242;-75
2021/09/07 02:15:03;;;;;;;28.60;23.63;;;;;;;6.24;100.00;99872.25;2089502;28;20234;-75
2021/09/07 02:16:04;;;;;;;26.58;23.85;;;;;;;6.24;100.00;99866.94;2089498;28;20302;-75
2021/09/07 02:17:06;;;;;;;25.52;22.60;;;;;;;6.23;100.00;99866.16;2089480;28;20223;-75
2021/09/07 02:18:07;;;;;;;28.70;23.55;;;;;;;6.29;100.00;99863.56;2089122;28;20284;-75
2021/09/07 02:19:09;;;;;;;29.67;23.77;;;;;;;6.28;100.00;99867.28;2088448;28;20222;-75
2021/09/07 02:20:12;;;;;;;27.65;23.35;;;;;;;6.29;100.00;99864.38;2088984;28;20692;-75
2021/09/07 02:21:14;;;;;;;25.75;22.90;;;;;;;6.31;100.00;99866.78;2089480;28;20677;-75
2021/09/07 02:22:18;;;;;;;26.83;23.83;;;;;;;6.30;100.00;99865.16;2089523;28;20226;-75
2021/09/07 02:23:22;;;;;;;25.27;22.77;;;;;;;6.29;100.00;99861.72;2089626;28;20243;-75
2021/09/07 02:24:23;;;;;;;25.48;22.92;;;;;;;6.32;100.00;99860.41;2088269;28;20585;-75
2021/09/07 02:25:26;;;;;;;26.13;22.52;;;;;;;6.32;100.00;99861.22;2088727;28;20300;-75
2021/09/07 02:26:28;;;;;;;28.20;22.60;;;;;;;6.36;100.00;99861.53;2089440;28;20234;-75
2021/09/07 02:27:31;;;;;;;25.52;22.42;;;;;;;6.39;100.00;99863.69;2088703;28;20219;-75
2021/09/07 02:28:33;;;;;;;25.52;22.80;;;;;;;6.37;100.00;99855.19;2088769;28;20298;-75
2021/09/07 02:29:37;;;;;;;26.33;22.35;;;;;;;6.35;100.00;99857.28;2089545;28;20762;-75
2021/09/07 02:30:38;;;;;;;24.58;22.17;;;;;;;6.35;100.00;99852.00;2088216;28;20285;-75
2021/09/07 02:31:40;;;;;;;25.98;23.30;;;;;;;6.38;100.00;99857.59;2088706;28;20222;-75
2021/09/07 02:32:43;;;;;;;24.88;22.27;;;;;;;6.39;100.00;99851.22;2089386;28;20291;-74
2021/09/07 02:33:48;;;;;;;24.08;21.58;;;;;;;6.38;100.00;99851.47;2089187;28;20222;-75
2021/09/07 02:34:48;;;;;;;24.02;21.60;;;;;;;6.36;100.00;99858.88;2089502;28;20596;-75
2021/09/07 02:35:51;;;;;;;23.38;20.90;;;;;;;6.38;100.00;99860.22;2089498;28;20692;-75
2021/09/07 02:36:53;;;;;;;24.17;21.52;;;;;;;6.36;100.00;99858.88;2089051;28;20689;-74
2021/09/07 02:37:55;;;;;;;24.10;21.60;;;;;;;6.35;100.00;99857.28;2088484;28;20656;-74
2021/09/07 02:38:55;;;;;;;23.98;21.50;;;;;;;6.34;100.00;99859.13;2080222;28;20231;-75
2021/09/07 02:39:58;;;;;;;27.48;22.20;;;;;;;6.38;100.00;99862.09;2088546;28;20661;-74
2021/09/07 02:40:58;;;;;;;23.27;20.83;;;;;;;6.37;100.00;99857.84;2089241;28;20225;-74
2021/09/07 02:42:03;;;;;;;24.13;21.48;;;;;;;6.36;100.00;99866.84;2089384;28;20247;-74
2021/09/07 02:43:07;;;;;;;24.73;22.02;;;;;;;6.36;100.00;99856.25;2088591;28;20226;-74
2021/09/07 02:44:11;;;;;;;24.88;21.77;;;;;;;6.38;100.00;99862.09;2087941;28;20657;-74
2021/09/07 02:45:12;;;;;;;25.75;21.95;;;;;;;6.38;100.00;99873.47;2088849;28;20326;-74
2021/09/07 02:46:15;;;;;;;25.42;22.80;;;;;;;6.37;100.00;99860.50;2088862;28;20317;-74
2021/09/07 02:47:15;;;;;;;25.25;22.55;;;;;;;6.40;100.00;99867.94;2089303;28;20230;-74
2021/09/07 02:48:18;;;;;;;29.60;23.38;;;;;;;6.40;100.00;99862.63;2088340;28;20305;-74
2021/09/07 02:49:18;;;;;;;27.00;23.27;;;;;;;6.42;100.00;99863.97;2088494;28;20219;-74
2021/09/07 02:50:22;;;;;;;24.97;22.47;;;;;;;6.42;100.00;99855.22;2088632;28;20299;-75
2021/09/07 02:51:25;;;;;;;27.90;22.52;;;;;;;6.45;100.00;99860.84;2089055;28;20367;-74
2021/09/07 02:52:28;;;;;;;28.90;23.08;;;;;;;6.47;100.00;99865.91;2088545;28;20288;-75
2021/09/07 02:53:28;;;;;;;23.92;21.45;;;;;;;6.45;100.00;99866.16;2088558;28;20222;-75
2021/09/07 02:54:32;;;;;;;26.60;22.67;;;;;;;6.47;100.00;99857.94;2088449;28;20233;-75
2021/09/07 02:55:32;;;;;;;25.08;22.52;;;;;;;6.47;100.00;99860.59;2088458;28;20241;-74
2021/09/07 02:56:34;;;;;;;24.43;21.93;;;;;;;6.48;100.00;99862.19;2089271;28;20695;-74
2021/09/07 02:57:37;;;;;;;25.42;22.83;;;;;;;6.47;100.00;99861.38;2089360;28;20230;-75
2021/09/07 02:58:40;;;;;;;24.67;22.08;;;;;;;6.49;100.00;99861.94;2089006;28;20219;-74
2021/09/07 02:59:41;;;;;;;23.98;21.45;;;;;;;6.47;100.00;99858.75;2089113;28;20321;-75
2021/09/07 03:00:43;;;;;;;25.00;22.33;;;;;;;6.49;100.00;99856.63;2088360;28;20237;-74
2021/09/07 03:01:44;;;;;;;25.42;22.75;;;;;;;6.49;100.00;99853.97;2088300;28;20554;-75
2021/09/07 03:02:46;;;;;;;25.70;21.37;;;;;;;6.48;100.00;99856.88;2088471;28;20229;-75
2021/09/07 03:03:47;;;;;;;25.13;21.88;;;;;;;6.50;100.00;99849.47;2088288;28;20272;-75
2021/09/07 03:04:51;;;;;;;24.93;22.17;;;;;;;6.50;100.00;99854.78;2072463;28;20219;-75
2021/09/07 03:05:52;;;;;;;24.30;21.80;;;;;;;6.49;100.00;99848.69;2080868;28;20234;-75
2021/09/07 03:06:56;;;;;;;26.95;22.50;;;;;;;6.51;100.00;99851.91;2088125;28;20310;-75
2021/09/07 03:07:56;;;;;;;23.98;20.73;;;;;;;6.56;100.00;99853.78;2089211;28;20235;-75
2021/09/07 03:08:58;;;;;;;23.60;21.03;;;;;;;6.56;100.00;99859.09;2088314;28;20231;-75
2021/09/07 03:09:59;;;;;;;23.33;20.95;;;;;;;6.59;100.00;99863.09;2088335;28;20230;-75
2021/09/07 03:11:01;;;;;;;23.95;21.45;;;;;;;6.58;100.00;99859.63;2089076;28;20305;-75
2021/09/07 03:12:06;;;;;;;23.13;20.75;;;;;;;6.59;100.00;99863.88;2088368;28;20294;-75
2021/09/07 03:13:10;;;;;;;24.27;21.67;;;;;;;6.59;100.00;99863.88;2088426;28;20222;-75
2021/09/07 03:14:11;;;;;;;23.23;21.00;;;;;;;6.61;100.00;99867.13;2089158;28;20229;-75
2021/09/07 03:15:14;;;;;;;26.60;21.85;;;;;;;6.62;100.00;99868.72;2088208;28;20238;-75
2021/09/07 03:16:14;;;;;;;23.88;21.45;;;;;;;6.64;100.00;99865.81;2088341;28;20240;-75
2021/09/07 03:17:17;;;;;;;25.30;21.95;;;;;;;6.66;100.00;99867.16;2088240;28;20696;-75
2021/09/07 03:18:18;;;;;;;25.05;22.48;;;;;;;6.66;100.00;99861.84;2080269;28;20246;-75
2021/09/07 03:19:20;;;;;;;24.97;21.67;;;;;;;6.67;100.00;99863.44;2088400;28;20233;-74
2021/09/07 03:20:21;;;;;;;23.40;20.90;;;;;;;6.69;100.00;99869.31;2088162;28;20441;-75
2021/09/07 03:21:25;;;;;;;23.65;20.63;;;;;;;6.70;100.00;99868.25;2087866;28;20268;-75
2021/09/07 03:22:29;;;;;;;23.67;21.48;;;;;;;6.72;100.00;99863.50;2088487;28;20250;-75
2021/09/07 03:23:31;;;;;;;24.45;21.98;;;;;;;6.72;100.00;99862.69;2089007;28;20669;-75
2021/09/07 03:24:36;;;;;;;25.48;21.10;;;;;;;6.74;100.00;99863.25;2088922;28;20265;-75
2021/09/07 03:25:37;;;;;;;23.30;21.00;;;;;;;6.76;100.00;99869.91;2088570;28;20231;-75
2021/09/07 03:26:39;;;;;;;23.65;20.98;;;;;;;6.75;100.00;99867.50;2089051;28;20571;-75
2021/09/07 03:27:40;;;;;;;26.63;21.58;;;;;;;6.82;100.00;99867.31;2088974;28;20241;-75
2021/09/07 03:28:44;;;;;;;24.20;21.23;;;;;;;6.82;100.00;99862.00;2088926;28;20229;-75
2021/09/07 03:29:45;;;;;;;26.48;22.40;;;;;;;6.80;100.00;99865.72;2088254;28;20239;-75
2021/09/07 03:30:49;;;;;;;29.80;22.73;;;;;;;6.80;100.00;99868.34;2088207;28;20218;-75
2021/09/07 03:31:50;;;;;;;25.42;22.60;;;;;;;6.79;100.00;99866.75;2088252;28;20227;-75
2021/09/07 03:32:55;;;;;;;25.23;21.80;;;;;;;6.78;100.00;99862.50;2088207;28;20226;-75
2021/09/07 03:33:57;;;;;;;27.42;21.63;;;;;;;6.80;100.00;99867.56;2080173;28;20238;-75
2021/09/07 03:34:59;;;;;;;26.57;21.90;;;;;;;6.79;100.00;99852.69;2088407;28;20305;-75
2021/09/07 03:35:59;;;;;;;24.55;21.95;;;;;;;6.75;100.00;99857.69;2088944;28;20250;-75
2021/09/07 03:37:01;;;;;;;24.95;21.45;;;;;;;6.75;100.00;99863.00;2088128;28;20225;-74
2021/09/07 03:38:03;;;;;;;28.98;22.70;;;;;;;6.77;100.00;99863.53;2088198;28;20600;-75
2021/09/07 03:39:07;;;;;;;25.90;23.20;;;;;;;6.77;100.00;99860.88;2088837;28;20261;-75
2021/09/07 03:40:08;;;;;;;28.42;23.40;;;;;;;6.76;100.00;99859.28;2087071;28;20700;-75
2021/09/07 03:41:11;;;;;;;28.92;22.98;;;;;;;6.77;100.00;99860.09;2079837;28;20311;-75
2021/09/07 03:42:13;;;;;;;26.02;23.33;;;;;;;6.77;100.00;99860.09;2080176;28;20223;-75
2021/09/07 03:43:15;;;;;;;33.10;25.00;;;;;;;6.76;100.00;99856.63;2080133;28;20215;-75
2021/09/07 03:44:17;;;;;;;32.78;24.73;;;;;;;6.73;100.00;99857.16;2088107;28;20219;-75
2021/09/07 03:45:19;;;;;;;34.13;24.38;;;;;;;6.76;100.00;99851.34;2088844;28;20367;-75
2021/09/07 03:46:24;;;;;;;27.08;23.85;;;;;;;6.77;100.00;99858.22;2088475;28;20222;-75
2021/09/07 03:47:27;;;;;;;26.80;22.90;;;;;;;6.75;100.00;99847.09;2088839;28;20585;-75
2021/09/07 03:48:29;;;;;;;28.58;23.17;;;;;;;6.77;100.00;99850.28;2088786;28;20219;-74
2021/09/07 03:49:30;;;;;;;29.17;24.45;;;;;;;6.74;100.00;99850.78;2088017;28;20305;-74
2021/09/07 03:50:32;;;;;;;34.07;24.67;;;;;;;6.74;100.00;99857.94;2088182;28;20720;-74
2021/09/07 03:51:33;;;;;;;30.25;23.95;;;;;;;6.70;100.00;99859.50;2088858;28;20230;-74
2021/09/07 03:52:36;;;;;;;30.33;23.48;;;;;;;6.69;100.00;99852.59;2087800;28;20337;-74
2021/09/07 03:53:38;;;;;;;28.83;23.38;;;;;;;6.68;100.00;99857.09;2079470;28;20578;-75
2021/09/07 03:54:40;;;;;;;29.80;24.42;;;;;;;6.66;100.00;99859.19;2087970;28;20226;-75
2021/09/07 03:55:41;;;;;;;31.90;23.95;;;;;;;6.64;100.00;99863.94;2088831;28;20271;-75
2021/09/07 03:56:42;;;;;;;30.03;23.07;;;;;;;6.64;100.00;99855.19;2088840;28;20230;-74
2021/09/07 03:57:43;;;;;;;27.98;23.50;;;;;;;6.61;100.00;99864.47;2088884;28;20222;-75
2021/09/07 03:58:47;;;;;;;25.95;23.13;;;;;;;6.60;100.00;99860.19;2088849;28;20614;-75
2021/09/07 03:59:51;;;;;;;27.13;23.00;;;;;;;6.57;100.00;99855.38;2088730;28;20239;-74
2021/09/07 04:00:54;;;;;;;28.95;24.48;;;;;;;6.58;100.00;99856.19;2088512;28;20234;-75
2021/09/07 04:01:56;;;;;;;28.27;24.48;;;;;;;6.57;100.00;99854.59;2088763;28;20226;-74
2021/09/07 04:02:58;;;;;;;26.48;23.17;;;;;;;6.55;100.00;99857.50;2088040;28;20218;-75
2021/09/07 04:04:01;;;;;;;32.15;24.33;;;;;;;6.55;100.00;99852.19;2088148;28;20226;-75
2021/09/07 04:05:03;;;;;;;30.30;24.00;;;;;;;6.54;100.00;99855.09;2088592;28;20265;-75
2021/09/07 04:06:04;;;;;;;30.30;22.80;;;;;;;6.54;100.00;99850.59;2088070;28;20222;-75
2021/09/07 04:07:07;;;;;;;32.03;23.92;;;;;;;6.56;100.00;99856.44;2088039;28;20708;-75
2021/09/07 04:08:11;;;;;;;27.98;23.80;;;;;;;6.52;100.00;99842.09;2087649;28;20260;-75
2021/09/07 04:09:13;;;;;;;26.08;23.27;;;;;;;6.57;100.00;99844.00;2088158;28;20275;-75
2021/09/07 04:10:15;;;;;;;32.22;23.55;;;;;;;6.56;100.00;99842.38;2088715;28;20708;-75
2021/09/07 04:11:17;;;;;;;29.10;23.50;;;;;;;6.57;100.00;99842.13;2088854;28;20550;-75
2021/09/07 04:12:18;;;;;;;34.95;23.77;;;;;;;6.60;100.00;99843.47;2088918;28;20579;-75
2021/09/07 04:13:21;;;;;;;32.15;23.42;;;;;;;6.61;100.00;99845.91;2088824;28;20218;-75
2021/09/07 04:14:23;;;;;;;30.02;24.13;;;;;;;6.56;100.00;99848.50;2087498;28;20238;-75
2021/09/07 04:15:26;;;;;;;29.27;22.47;;;;;;;6.54;100.00;99853.25;2088072;28;20227;-75
2021/09/07 04:16:27;;;;;;;29.58;23.17;;;;;;;6.56;100.00;99848.50;2088663;28;20559;-75
2021/09/07 04:17:29;;;;;;;38.03;23.53;;;;;;;6.55;100.00;99857.50;2088726;28;20245;-75
2021/09/07 04:18:30;;;;;;;30.85;23.13;;;;;;;6.53;100.00;99851.66;2088622;28;20246;-75
2021/09/07 04:19:33;;;;;;;29.70;22.60;;;;;;;6.53;100.00;99854.31;2088682;28;20230;-75
2021/09/07 04:20:34;;;;;;;25.10;22.05;;;;;;;6.51;100.00;99851.06;2088768;28;20223;-75
2021/09/07 04:21:39;;;;;;;29.25;22.45;;;;;;;6.52;100.00;99852.72;2088728;28;20724;-75
2021/09/07 04:22:40;;;;;;;28.65;23.02;;;;;;;6.52;100.00;99850.06;2088360;28;20223;-75
2021/09/07 04:23:41;;;;;;;28.67;22.67;;;;;;;6.54;100.00;99847.94;2088730;28;20226;-75
2021/09/07 04:24:42;;;;;;;30.42;21.98;;;;;;;6.57;100.00;99858.03;2088739;28;20227;-75
2021/09/07 04:25:44;;;;;;;25.97;23.17;;;;;;;6.59;100.00;99861.25;2088099;28;20218;-76
2021/09/07 04:26:44;;;;;;;25.67;22.73;;;;;;;6.64;100.00;99856.00;2087923;28;20267;-75
2021/09/07 04:27:46;;;;;;;27.20;22.53;;;;;;;6.70;100.00;99862.97;2088669;28;20730;-75
2021/09/07 04:28:47;;;;;;;28.13;22.75;;;;;;;6.75;100.00;99862.19;2088828;28;20218;-75
2021/09/07 04:29:50;;;;;;;26.83;22.70;;;;;;;6.79;100.00;99860.66;2088738;28;20229;-75
2021/09/07 04:30:52;;;;;;;28.63;21.95;;;;;;;6.82;100.00;99862.00;2088021;28;20288;-75
2021/09/07 04:31:53;;;;;;;29.13;22.63;;;;;;;6.85;100.00;99862.28;2087736;28;20230;-75
2021/09/07 04:32:55;;;;;;;28.65;22.80;;;;;;;6.88;100.00;99858.34;2088580;28;20237;-75
2021/09/07 04:34:00;;;;;;;28.85;24.33;;;;;;;6.87;100.00;99854.91;2088571;28;20231;-75
2021/09/07 04:35:02;;;;;;;28.27;23.63;;;;;;;6.91;100.00;99857.84;2088101;28;20222;-75
2021/09/07 04:36:03;;;;;;;26.75;22.65;;;;;;;6.92;100.00;99856.78;2088093;28;20241;-75
2021/09/07 04:37:05;;;;;;;29.80;23.00;;;;;;;6.94;100.00;99857.31;2087898;28;20225;-75
2021/09/07 04:38:05;;;;;;;27.13;22.85;;;;;;;6.94;100.00;99859.97;2087855;28;20245;-75
2021/09/07 04:39:07;;;;;;;31.80;24.07;;;;;;;6.95;100.00;99858.91;2088774;28;20218;-75
2021/09/07 04:40:08;;;;;;;28.42;24.52;;;;;;;6.96;100.00;99858.69;2087447;28;20645;-75
2021/09/07 04:41:13;;;;;;;25.90;23.33;;;;;;;6.96;100.00;99863.19;2079701;28;20720;-75
2021/09/07 04:42:18;;;;;;;25.83;23.00;;;;;;;6.96;100.00;99861.34;2080547;28;20223;-75
2021/09/07 04:43:21;;;;;;;27.00;23.73;;;;;;;6.99;100.00;99865.34;2088093;28;20223;-75
2021/09/07 04:44:24;;;;;;;28.35;23.02;;;;;;;7.01;100.00;99871.19;2087464;28;20642;-75
2021/09/07 04:45:26;;;;;;;29.63;22.52;;;;;;;7.01;100.00;99869.34;2087673;28;20223;-75